Time;durP1;ratioP1;P1;durP2;ratioP2;P2;SDS_P1;SDS_P2;PMS_P1;PMS_P2;Temp;Humidity;BMP_temperature;BMP_pressure;BME280_temperature;BME280_humidity;BME280_pressure;Samples;Min_cycle;Max_cycle;Signal;HPM_P1;HPM_P2
2021/08/07 00:00:27;;;;;;;3.30;1.90;;;;;;;14.08;86.69;99100.22;153998;1100;103128;-76
2021/08/07 00:03:30;;;;;;;3.47;1.93;;;;;;;14.07;86.73;99098.58;153927;1100;103272;-77
2021/08/07 00:06:33;;;;;;;4.67;1.90;;;;;;;14.09;86.75;99099.20;153977;1100;103163;-76
2021/08/07 00:09:36;;;;;;;2.87;1.80;;;;;;;14.07;86.84;99095.89;153930;1100;103141;-76
2021/08/07 00:12:38;;;;;;;4.85;1.75;;;;;;;14.06;86.41;99104.95;154658;1093;103190;-77
2021/08/07 00:15:41;;;;;;;2.78;1.80;;;;;;;14.04;86.52;99101.66;153978;1100;103212;-75
2021/08/07 00:18:44;;;;;;;3.00;2.00;;;;;;;14.07;86.43;99109.31;154573;1093;103109;-76
2021/08/07 00:21:48;;;;;;;3.40;1.80;;;;;;;14.07;86.67;99109.31;153946;1100;103576;-76
2021/08/07 00:24:51;;;;;;;4.47;2.17;;;;;;;14.04;86.28;99111.56;154610;1098;103211;-75
2021/08/07 00:27:54;;;;;;;3.53;1.53;;;;;;;14.00;86.42;99124.55;153949;1100;103128;-75
2021/08/07 00:30:56;;;;;;;3.25;1.80;;;;;;;14.01;86.46;99118.17;154593;1098;103167;-77
2021/08/07 00:33:59;;;;;;;3.37;1.70;;;;;;;14.04;86.43;99119.61;153971;1100;103197;-75
2021/08/07 00:37:05;;;;;;;3.00;1.80;;;;;;;14.03;86.36;99123.31;154619;1098;103288;-76
2021/08/07 00:40:11;;;;;;;3.63;1.80;;;;;;;13.99;86.31;99120.23;154023;1100;103192;-76
2021/08/07 00:43:15;;;;;;;4.70;1.80;;;;;;;13.95;86.14;99116.28;154212;1093;103168;-76
2021/08/07 00:46:18;;;;;;;3.10;1.50;;;;;;;13.95;86.21;99124.33;153989;1100;103210;-76
2021/08/07 00:49:22;;;;;;;2.20;1.70;;;;;;;13.91;86.28;99123.93;154259;1093;103211;-76
2021/08/07 00:52:27;;;;;;;3.30;1.75;;;;;;;13.92;86.38;99133.61;154638;1093;103190;-76
2021/08/07 00:55:31;;;;;;;4.87;1.87;;;;;;;13.88;86.20;99132.38;154030;1093;103212;-75
2021/08/07 00:58:34;;;;;;;3.67;1.60;;;;;;;13.83;86.17;99128.64;153981;1100;103117;-76
2021/08/07 01:01:43;;;;;;;2.98;1.50;;;;;;;13.82;86.24;99130.50;153914;1100;103128;-76
2021/08/07 01:04:57;;;;;;;3.17;1.80;;;;;;;13.82;86.29;99129.66;154543;1093;103109;-76
2021/08/07 01:08:11;;;;;;;4.00;1.85;;;;;;;13.82;86.14;99129.66;153975;1093;103120;-75
2021/08/07 01:11:26;;;;;;;3.37;1.77;;;;;;;13.80;86.48;99137.92;154591;1093;103188;-75
2021/08/07 01:14:36;;;;;;;4.70;1.70;;;;;;;13.77;86.21;99149.03;154126;1098;103266;-76
2021/08/07 01:17:44;;;;;;;3.43;1.87;;;;;;;13.76;86.04;99144.72;154146;1098;103154;-76
2021/08/07 01:20:50;;;;;;;3.63;1.58;;;;;;;13.79;86.38;99146.16;154222;1093;103189;-76
2021/08/07 01:24:01;;;;;;;2.38;1.80;;;;;;;13.78;86.21;99155.22;154014;1100;103274;-75
2021/08/07 01:27:16;;;;;;;1.87;1.67;;;;;;;13.75;86.11;99157.27;153984;1093;103129;-76
2021/08/07 01:30:22;;;;;;;2.17;1.50;;;;;;;13.71;86.08;99158.70;154147;1098;103211;-75
2021/08/07 01:33:28;;;;;;;3.05;1.58;;;;;;;13.72;85.98;99162.20;154553;1098;103195;-77
2021/08/07 01:36:34;;;;;;;2.30;1.80;;;;;;;13.72;86.02;99154.16;154585;1093;103123;-75
2021/08/07 01:39:44;;;;;;;3.77;1.97;;;;;;;13.69;85.78;99152.72;153966;1093;103116;-76
2021/08/07 01:42:48;;;;;;;4.03;2.00;;;;;;;13.66;85.80;99154.97;154044;1101;103114;-76
2021/08/07 01:45:56;;;;;;;2.70;1.88;;;;;;;13.60;85.85;99148.55;154617;1098;103118;-75
2021/08/07 01:49:18;;;;;;;5.43;1.90;;;;;;;13.58;85.84;99142.56;154518;1098;103192;-76
2021/08/07 01:52:28;;;;;;;3.35;1.70;;;;;;;13.58;85.91;99153.29;153953;1100;103140;-76
2021/08/07 01:55:40;;;;;;;3.28;1.83;;;;;;;13.55;85.82;99151.03;154554;1093;103611;-76
2021/08/07 01:58:51;;;;;;;3.90;1.80;;;;;;;13.51;85.73;99155.95;154650;1093;103130;-76
2021/08/07 02:01:58;;;;;;;4.15;1.80;;;;;;;13.47;85.92;99159.21;154606;1098;103121;-75
2021/08/07 02:05:20;;;;;;;3.85;2.05;;;;;;;13.45;85.72;99161.27;153938;1100;103228;-75
2021/08/07 02:08:26;;;;;;;4.70;1.90;;;;;;;13.45;85.67;99155.91;153936;1100;103107;-75
2021/08/07 02:11:32;;;;;;;2.68;1.70;;;;;;;13.42;85.74;99146.42;154547;1093;103190;-75
2021/08/07 02:14:40;;;;;;;3.20;1.93;;;;;;;13.39;85.65;99151.34;154105;1093;103150;-76
2021/08/07 02:17:47;;;;;;;5.15;2.08;;;;;;;13.30;85.59;99154.20;153921;1094;103155;-76
2021/08/07 02:20:52;;;;;;;3.83;1.98;;;;;;;13.26;85.74;99150.23;154647;1098;103121;-75
2021/08/07 02:23:55;;;;;;;6.00;1.75;;;;;;;13.25;85.51;99156.59;154123;1093;103213;-76
2021/08/07 02:27:00;;;;;;;3.85;1.98;;;;;;;13.23;85.59;99164.01;153997;1093;103286;-75
2021/08/07 02:30:07;;;;;;;3.73;1.78;;;;;;;13.23;85.74;99164.01;154111;1100;103122;-75
2021/08/07 02:33:12;;;;;;;4.23;2.15;;;;;;;13.20;85.83;99168.93;154462;1093;103103;-75
2021/08/07 02:36:17;;;;;;;3.87;2.07;;;;;;;13.16;85.88;99173.84;153977;1100;103153;-76
2021/08/07 02:39:27;;;;;;;4.57;2.00;;;;;;;13.15;85.57;99182.92;154030;1093;103190;-77
2021/08/07 02:42:32;;;;;;;3.30;2.00;;;;;;;13.14;85.54;99190.14;154003;1094;103260;-75
2021/08/07 02:45:35;;;;;;;3.00;1.73;;;;;;;13.13;85.68;99176.94;154575;1093;103189;-75
2021/08/07 02:48:40;;;;;;;8.27;2.57;;;;;;;13.09;85.50;99183.71;154612;1098;103189;-76
2021/08/07 02:51:43;;;;;;;3.97;2.10;;;;;;;13.06;85.74;99197.48;154574;1098;103110;-76
2021/08/07 02:54:47;;;;;;;5.18;1.90;;;;;;;13.03;85.64;99192.50;154009;1093;103136;-76
2021/08/07 02:57:52;;;;;;;2.43;1.77;;;;;;;13.02;85.54;99189.00;154000;1101;103258;-75
2021/08/07 03:00:56;;;;;;;2.37;1.80;;;;;;;12.99;85.37;99193.92;154238;1098;103293;-75
2021/08/07 03:04:01;;;;;;;2.63;2.00;;;;;;;12.96;85.09;99200.50;153972;1100;103109;-75
2021/08/07 03:07:06;;;;;;;4.08;1.95;;;;;;;12.91;85.20;99195.74;154530;1098;103118;-76
2021/08/07 03:10:11;;;;;;;3.43;2.17;;;;;;;12.85;85.02;99204.52;153993;1093;103189;-75
2021/08/07 03:13:15;;;;;;;4.00;1.93;;;;;;;12.81;85.24;99208.61;154651;1094;103257;-76
2021/08/07 03:16:19;;;;;;;5.18;1.90;;;;;;;12.78;85.03;99198.31;154599;1093;103123;-75
2021/08/07 03:19:24;;;;;;;4.30;1.73;;;;;;;12.74;84.97;99207.72;154596;1098;103193;-76
2021/08/07 03:22:28;;;;;;;2.43;1.93;;;;;;;12.69;85.27;99208.31;154038;1100;103127;-75
2021/08/07 03:25:31;;;;;;;2.60;2.00;;;;;;;12.66;84.75;99210.54;154079;1093;103069;-76
2021/08/07 03:28:35;;;;;;;2.38;1.70;;;;;;;12.61;85.26;99218.34;154644;1093;103250;-76
2021/08/07 03:31:38;;;;;;;2.80;1.80;;;;;;;12.54;84.82;99219.08;154095;1093;103196;-76
2021/08/07 03:34:41;;;;;;;2.08;1.60;;;;;;;12.51;84.96;99211.45;154051;1093;103190;-76
2021/08/07 03:37:45;;;;;;;4.87;1.70;;;;;;;12.47;84.74;99215.53;154070;1093;103576;-76
2021/08/07 03:40:48;;;;;;;2.23;1.70;;;;;;;12.46;84.79;99213.86;154603;1093;103139;-75
2021/08/07 03:43:52;;;;;;;3.30;1.70;;;;;;;12.42;84.34;99219.80;154102;1093;103263;-74
2021/08/07 03:46:55;;;;;;;3.67;2.00;;;;;;;12.27;83.89;99228.69;154169;1093;103122;-73
2021/08/07 03:49:59;;;;;;;2.95;1.63;;;;;;;12.23;84.89;99231.94;154041;1093;103165;-75
2021/08/07 03:53:02;;;;;;;2.93;1.70;;;;;;;12.23;84.32;99232.76;154561;1093;103181;-75
2021/08/07 03:56:06;;;;;;;3.50;1.70;;;;;;;12.28;84.74;99229.50;154636;1093;103128;-74
2021/08/07 03:59:10;;;;;;;2.50;1.70;;;;;;;12.29;84.22;99229.32;154041;1093;103196;-76
2021/08/07 04:02:14;;;;;;;2.00;1.70;;;;;;;12.32;84.13;99225.45;154637;1098;103200;-77
2021/08/07 04:05:17;;;;;;;2.80;1.60;;;;;;;12.38;84.83;99225.52;153938;1100;103131;-75
2021/08/07 04:08:21;;;;;;;3.33;1.80;;;;;;;12.42;84.50;99222.47;154538;1098;103051;-75
2021/08/07 04:11:24;;;;;;;3.63;1.70;;;;;;;12.52;84.25;99225.65;154014;1100;103147;-75
2021/08/07 04:14:35;;;;;;;2.48;1.63;;;;;;;12.74;84.67;99223.78;154066;1093;103283;-75
2021/08/07 04:17:40;;;;;;;2.25;1.73;;;;;;;12.95;84.27;99221.10;154055;1093;103139;-75
2021/08/07 04:20:42;;;;;;;2.80;1.80;;;;;;;13.19;84.51;99232.39;154205;1093;103279;-75
2021/08/07 04:23:46;;;;;;;4.08;1.70;;;;;;;13.43;84.43;99230.31;154502;1093;103163;-75
2021/08/07 04:26:48;;;;;;;3.33;1.43;;;;;;;13.62;84.35;99226.91;153972;1100;103122;-77
2021/08/07 04:29:53;;;;;;;3.33;1.48;;;;;;;13.88;84.48;99225.41;154554;1093;103598;-76
2021/08/07 04:32:56;;;;;;;2.60;1.40;;;;;;;14.13;84.22;99225.70;154071;1094;103187;-75
2021/08/07 04:36:00;;;;;;;2.37;1.60;;;;;;;14.35;84.10;99223.69;153931;1094;103147;-75
2021/08/07 04:39:03;;;;;;;1.90;1.60;;;;;;;14.60;84.38;99209.73;154593;1093;103131;-77
2021/08/07 04:42:06;;;;;;;2.80;1.70;;;;;;;14.75;84.06;99207.67;154052;1093;103139;-76
2021/08/07 04:45:11;;;;;;;4.17;1.80;;;;;;;14.90;83.53;99208.30;154001;1093;103195;-76
2021/08/07 04:48:15;;;;;;;5.50;2.88;;;;;;;15.10;83.71;99205.58;154052;1100;103189;-76
2021/08/07 04:51:24;;;;;;;4.50;2.90;;;;;;;15.35;83.76;99206.80;153985;1100;103129;-76
2021/08/07 04:54:27;;;;;;;2.60;2.20;;;;;;;15.57;83.71;99213.58;154529;1093;103119;-75
2021/08/07 04:57:30;;;;;;;6.00;2.10;;;;;;;15.75;84.14;99210.23;154076;1100;103210;-76
2021/08/07 05:00:33;;;;;;;5.77;2.20;;;;;;;15.89;84.10;99211.82;153955;1093;103268;-76
2021/08/07 05:03:38;;;;;;;3.10;2.15;;;;;;;16.10;83.90;99204.50;153968;1093;103151;-76
2021/08/07 05:06:44;;;;;;;4.93;2.30;;;;;;;16.29;83.42;99205.43;154540;1093;103493;-76
2021/08/07 05:09:47;;;;;;;4.58;2.30;;;;;;;16.46;83.09;99220.03;153982;1100;103118;-76
2021/08/07 05:12:54;;;;;;;3.57;2.03;;;;;;;16.59;83.39;99220.97;154000;1100;103046;-76
2021/08/07 05:15:57;;;;;;;3.30;2.20;;;;;;;16.68;82.84;99225.05;154132;1093;103215;-76
2021/08/07 05:19:01;;;;;;;3.90;2.30;;;;;;;16.79;83.28;99228.92;154098;1093;103192;-73
2021/08/07 05:22:05;;;;;;;4.00;2.10;;;;;;;16.95;82.97;99230.28;154056;1093;103136;-74
2021/08/07 05:25:11;;;;;;;2.80;2.00;;;;;;;17.08;82.96;99228.29;154651;1098;103595;-76
2021/08/07 05:28:14;;;;;;;4.63;2.30;;;;;;;17.22;82.48;99234.38;154117;1093;103152;-75
2021/08/07 05:31:19;;;;;;;5.18;2.70;;;;;;;17.28;82.49;99229.97;154654;1093;103506;-75
2021/08/07 05:34:22;;;;;;;4.13;2.30;;;;;;;17.35;82.35;99236.14;154121;1100;103199;-75
2021/08/07 05:37:25;;;;;;;3.15;2.00;;;;;;;17.41;82.30;99235.23;154537;1093;103215;-76
2021/08/07 05:40:28;;;;;;;5.33;2.20;;;;;;;17.51;82.37;99242.81;154529;1093;103478;-76
2021/08/07 05:43:32;;;;;;;4.03;2.10;;;;;;;17.60;82.12;99240.66;153989;1093;103151;-74
2021/08/07 05:46:35;;;;;;;3.73;2.38;;;;;;;17.69;82.09;99243.88;154668;1093;103288;-74
2021/08/07 05:49:38;;;;;;;4.97;2.17;;;;;;;17.75;81.83;99248.40;154110;1093;103155;-75
2021/08/07 05:52:44;;;;;;;4.45;2.50;;;;;;;17.79;81.59;99246.90;154019;1093;103663;-76
2021/08/07 05:55:46;;;;;;;5.33;2.20;;;;;;;17.77;81.73;99246.30;154087;1094;103572;-76
2021/08/07 05:58:49;;;;;;;3.27;2.30;;;;;;;17.78;81.75;99250.63;154217;1098;103115;-76
2021/08/07 06:01:53;;;;;;;4.35;1.98;;;;;;;17.78;81.18;99243.38;154063;1094;103193;-75
2021/08/07 06:04:57;;;;;;;4.67;2.43;;;;;;;17.86;81.64;99247.69;154023;1093;103228;-75
2021/08/07 06:08:00;;;;;;;4.20;2.50;;;;;;;17.89;81.57;99231.02;154243;1098;103213;-76
2021/08/07 06:11:03;;;;;;;4.27;2.40;;;;;;;17.95;81.19;99231.99;154056;1093;103190;-76
2021/08/07 06:14:06;;;;;;;3.57;2.30;;;;;;;17.98;81.18;99229.67;154648;1093;103181;-75
2021/08/07 06:17:09;;;;;;;2.97;2.10;;;;;;;17.97;81.26;99233.41;154071;1100;103174;-75
2021/08/07 06:20:16;;;;;;;5.93;3.15;;;;;;;18.00;81.22;99238.36;154657;1093;103121;-74
2021/08/07 06:23:23;;;;;;;3.50;3.07;;;;;;;18.05;81.10;99238.52;154032;1093;103196;-75
2021/08/07 06:26:29;;;;;;;4.17;2.70;;;;;;;18.13;81.22;99241.94;153956;1093;103125;-75
2021/08/07 06:29:33;;;;;;;3.65;2.30;;;;;;;18.16;80.95;99238.80;154589;1098;103128;-75
2021/08/07 06:32:38;;;;;;;3.40;2.30;;;;;;;18.19;81.06;99239.17;154002;1093;103225;-75
2021/08/07 06:35:41;;;;;;;4.60;2.10;;;;;;;18.20;81.04;99243.50;154018;1093;103113;-76
2021/08/07 06:38:44;;;;;;;3.63;1.90;;;;;;;18.27;81.14;99242.61;154533;1093;103099;-76
2021/08/07 06:41:47;;;;;;;4.23;2.10;;;;;;;18.34;80.80;99243.33;154027;1100;103215;-76
2021/08/07 06:44:56;;;;;;;4.60;2.30;;;;;;;18.41;81.01;99241.36;153977;1100;103110;-76
2021/08/07 06:47:59;;;;;;;4.45;2.60;;;;;;;18.48;81.01;99243.98;154530;1093;103586;-76
2021/08/07 06:51:02;;;;;;;3.27;2.43;;;;;;;18.54;80.94;99243.06;153950;1094;103193;-76
2021/08/07 06:54:05;;;;;;;6.10;2.40;;;;;;;18.59;80.71;99235.07;154559;1093;103203;-74
2021/08/07 06:57:14;;;;;;;5.13;2.00;;;;;;;18.68;80.79;99241.80;154016;1100;103187;-76
2021/08/07 07:00:17;;;;;;;3.80;2.48;;;;;;;18.75;80.73;99242.53;154160;1093;103111;-77
2021/08/07 07:03:22;;;;;;;3.50;2.43;;;;;;;18.85;80.78;99244.70;154342;1094;103331;-76
2021/08/07 07:06:25;;;;;;;3.70;2.20;;;;;;;18.93;80.63;99246.23;153984;1093;103210;-76
2021/08/07 07:09:28;;;;;;;5.57;2.70;;;;;;;18.98;80.50;99247.19;153919;1093;103216;-77
2021/08/07 07:12:31;;;;;;;3.27;2.10;;;;;;;19.04;80.35;99250.84;153943;1093;103107;-76
2021/08/07 07:15:35;;;;;;;3.00;2.15;;;;;;;19.12;80.32;99239.68;153978;1093;103120;-76
2021/08/07 07:18:38;;;;;;;2.58;2.33;;;;;;;19.21;79.88;99248.28;153989;1093;103270;-75
2021/08/07 07:21:41;;;;;;;2.53;2.20;;;;;;;19.31;79.56;99242.28;153974;1093;103124;-76
2021/08/07 07:24:44;;;;;;;3.57;2.20;;;;;;;19.37;79.84;99244.05;153977;1100;103187;-76
2021/08/07 07:27:49;;;;;;;4.07;2.47;;;;;;;19.45;79.83;99248.27;153937;1093;103180;-76
2021/08/07 07:30:53;;;;;;;4.60;2.40;;;;;;;19.50;79.71;99251.92;154003;1100;103125;-76
2021/08/07 07:33:57;;;;;;;2.90;2.17;;;;;;;19.55;79.54;99249.34;153981;1093;103126;-75
2021/08/07 07:37:00;;;;;;;3.83;2.03;;;;;;;19.67;79.60;99251.19;154025;1094;103224;-76
2021/08/07 07:40:10;;;;;;;5.95;2.80;;;;;;;19.77;79.17;99259.58;153927;1094;103194;-76
2021/08/07 07:43:13;;;;;;;2.83;2.07;;;;;;;19.87;78.97;99267.09;153970;1100;103197;-76
2021/08/07 07:46:16;;;;;;;5.23;2.30;;;;;;;19.94;78.67;99263.20;153975;1100;103130;-76
2021/08/07 07:49:20;;;;;;;3.25;2.28;;;;;;;20.01;78.28;99260.34;154002;1093;103192;-76
2021/08/07 07:52:23;;;;;;;2.73;2.20;;;;;;;20.07;77.92;99266.69;153984;1100;103210;-75
2021/08/07 07:55:25;;;;;;;2.27;1.90;;;;;;;20.10;77.52;99268.92;153963;1093;103109;-76
2021/08/07 07:58:29;;;;;;;2.85;2.15;;;;;;;20.11;77.21;99274.11;153947;1093;103201;-76
2021/08/07 08:01:32;;;;;;;2.57;1.80;;;;;;;20.15;76.67;99269.01;153970;1093;103125;-76
2021/08/07 08:04:34;;;;;;;2.70;1.83;;;;;;;20.22;76.79;99279.72;153976;1093;103282;-76
2021/08/07 08:07:44;;;;;;;2.00;1.80;;;;;;;20.28;76.05;99274.15;154021;1100;103126;-76
2021/08/07 08:10:47;;;;;;;2.10;1.90;;;;;;;20.35;76.50;99272.13;153952;1093;103640;-76
2021/08/07 08:13:54;;;;;;;1.90;1.63;;;;;;;20.40;76.71;99283.08;153950;1100;103137;-76
2021/08/07 08:16:57;;;;;;;3.35;2.00;;;;;;;20.46;76.43;99285.86;154028;1100;103155;-75
2021/08/07 08:20:00;;;;;;;2.53;2.13;;;;;;;20.49;76.39;99291.63;153927;1093;103212;-75
2021/08/07 08:23:04;;;;;;;3.27;2.50;;;;;;;20.59;76.43;99286.45;154013;1093;103154;-76
2021/08/07 08:26:07;;;;;;;3.77;2.07;;;;;;;20.76;76.38;99297.31;154011;1094;103110;-75
2021/08/07 08:29:10;;;;;;;2.90;1.90;;;;;;;20.98;76.12;99304.77;154002;1094;103173;-76
2021/08/07 08:32:14;;;;;;;2.93;2.43;;;;;;;21.17;75.51;99297.19;153985;1093;103133;-76
2021/08/07 08:35:17;;;;;;;3.30;2.33;;;;;;;21.40;75.66;99307.06;153970;1093;103218;-75
2021/08/07 08:38:20;;;;;;;3.67;2.60;;;;;;;21.61;74.62;99301.98;154018;1093;103222;-75
2021/08/07 08:41:23;;;;;;;2.63;2.40;;;;;;;21.82;75.34;99306.63;153936;1100;103136;-76
2021/08/07 08:44:27;;;;;;;3.17;2.50;;;;;;;21.92;75.20;99309.50;154035;1093;103192;-76
2021/08/07 08:47:31;;;;;;;3.50;2.63;;;;;;;21.90;74.27;99308.09;154095;1093;103132;-75
2021/08/07 08:50:34;;;;;;;2.90;2.60;;;;;;;21.88;74.06;99318.38;154038;1093;103281;-75
2021/08/07 08:53:39;;;;;;;3.25;2.73;;;;;;;21.82;74.41;99319.39;153991;1093;103125;-75
2021/08/07 08:56:45;;;;;;;3.90;3.35;;;;;;;21.71;74.21;99318.41;153994;1093;103278;-75
2021/08/07 08:59:48;;;;;;;3.70;2.70;;;;;;;21.72;74.81;99320.88;153956;1100;103154;-76
2021/08/07 09:02:53;;;;;;;3.78;3.18;;;;;;;21.76;74.63;99316.59;154000;1094;103123;-76
2021/08/07 09:05:56;;;;;;;4.63;3.50;;;;;;;21.80;74.67;99322.35;154496;1098;103171;-75
2021/08/07 09:09:01;;;;;;;4.23;3.83;;;;;;;21.85;73.27;99324.33;154600;1093;103125;-75
2021/08/07 09:12:06;;;;;;;5.53;4.08;;;;;;;21.83;74.08;99327.30;154204;1093;103125;-75
2021/08/07 09:15:25;;;;;;;4.08;3.68;;;;;;;21.79;73.96;99334.30;154187;1093;103212;-76
2021/08/07 09:18:28;;;;;;;4.30;3.83;;;;;;;21.73;74.30;99325.26;153995;1100;103237;-75
2021/08/07 09:21:42;;;;;;;4.20;3.75;;;;;;;21.76;74.20;99332.07;154492;1093;103289;-76
2021/08/07 09:24:56;;;;;;;3.98;3.65;;;;;;;21.90;74.12;99327.10;153974;1093;103096;-76
2021/08/07 09:27:59;;;;;;;5.23;4.10;;;;;;;22.02;73.52;99313.41;153982;1100;103193;-75
2021/08/07 09:31:06;;;;;;;5.40;4.13;;;;;;;22.16;73.93;99317.41;153960;1100;103163;-76
2021/08/07 09:34:19;;;;;;;4.75;4.25;;;;;;;22.28;73.48;99329.00;153992;1100;103125;-76
2021/08/07 09:37:24;;;;;;;4.70;4.20;;;;;;;22.22;73.31;99332.70;154016;1093;103190;-75
2021/08/07 09:40:39;;;;;;;4.83;4.20;;;;;;;22.19;72.77;99330.50;153960;1100;103576;-75
2021/08/07 09:43:46;;;;;;;5.15;4.48;;;;;;;22.25;72.90;99342.27;153982;1093;103253;-75
2021/08/07 09:46:49;;;;;;;5.95;4.70;;;;;;;22.38;72.76;99341.89;153970;1100;103119;-75
2021/08/07 09:49:52;;;;;;;4.50;4.10;;;;;;;22.58;72.69;99338.61;154022;1100;103187;-75
2021/08/07 09:52:56;;;;;;;4.80;4.27;;;;;;;22.77;72.50;99325.49;154018;1093;103196;-72
2021/08/07 09:56:01;;;;;;;6.13;4.60;;;;;;;22.89;71.59;99328.87;153974;1093;103191;-75
2021/08/07 09:59:10;;;;;;;4.60;4.20;;;;;;;22.86;71.44;99340.25;154125;1098;103154;-74
2021/08/07 10:02:21;;;;;;;5.60;4.63;;;;;;;22.71;70.24;99346.38;154166;1093;103124;-75
2021/08/07 10:05:27;;;;;;;4.88;4.45;;;;;;;22.67;71.52;99337.09;154607;1098;103269;-75
2021/08/07 10:08:47;;;;;;;5.20;4.10;;;;;;;22.66;71.84;99346.30;154600;1093;103285;-74
2021/08/07 10:12:02;;;;;;;4.10;3.70;;;;;;;22.76;70.78;99355.66;154220;1093;103198;-75
2021/08/07 10:15:07;;;;;;;3.40;3.10;;;;;;;22.82;70.56;99343.75;154641;1098;103193;-75
2021/08/07 10:18:11;;;;;;;3.50;3.10;;;;;;;22.98;71.07;99345.56;154136;1098;103333;-74
2021/08/07 10:21:16;;;;;;;4.30;2.40;;;;;;;23.18;71.26;99352.30;154567;1093;103130;-75
2021/08/07 10:24:20;;;;;;;3.38;2.70;;;;;;;23.25;70.91;99353.73;154363;1093;103273;-74
2021/08/07 10:27:27;;;;;;;2.75;2.55;;;;;;;23.27;70.64;99351.57;154232;1098;103174;-75
2021/08/07 10:30:36;;;;;;;2.70;2.50;;;;;;;23.22;70.75;99353.42;154173;1093;103117;-74
2021/08/07 10:33:43;;;;;;;4.70;2.60;;;;;;;23.08;70.02;99358.47;153975;1093;103224;-75
2021/08/07 10:36:46;;;;;;;2.70;2.50;;;;;;;22.97;70.47;99356.70;154040;1093;103192;-74
2021/08/07 10:39:52;;;;;;;3.10;2.20;;;;;;;22.91;70.47;99353.09;154035;1093;103136;-74
2021/08/07 10:42:56;;;;;;;2.85;2.40;;;;;;;22.83;70.35;99362.54;154127;1099;103121;-75
2021/08/07 10:45:59;;;;;;;2.30;2.10;;;;;;;22.97;70.65;99362.95;154142;1098;103174;-74
2021/08/07 10:49:02;;;;;;;2.75;2.50;;;;;;;23.04;69.67;99352.72;154083;1101;103202;-75
2021/08/07 10:52:36;;;;;;;2.60;2.40;;;;;;;23.12;70.29;99345.99;154650;1098;103151;-74
2021/08/07 10:55:50;;;;;;;2.67;2.47;;;;;;;23.22;70.52;99348.80;154630;1098;103550;-75
2021/08/07 10:58:56;;;;;;;2.70;2.50;;;;;;;23.29;69.67;99349.41;154253;1093;103189;-77
2021/08/07 11:01:59;;;;;;;2.60;2.40;;;;;;;23.30;69.79;99350.22;153947;1094;103190;-75
2021/08/07 11:05:03;;;;;;;2.47;2.27;;;;;;;23.39;67.21;99356.03;154567;1093;103107;-76
2021/08/07 11:08:16;;;;;;;3.10;2.40;;;;;;;23.41;67.79;99342.98;154587;1098;103189;-76
2021/08/07 11:11:28;;;;;;;2.37;2.17;;;;;;;23.65;66.79;99340.69;153954;1094;103276;-76
2021/08/07 11:14:46;;;;;;;3.20;2.50;;;;;;;23.85;68.48;99353.67;154059;1100;103212;-75
2021/08/07 11:17:50;;;;;;;2.20;2.00;;;;;;;24.01;67.72;99347.22;154019;1094;103187;-75
2021/08/07 11:20:54;;;;;;;1.90;1.80;;;;;;;24.14;66.05;99342.39;154642;1094;103192;-76
2021/08/07 11:23:56;;;;;;;2.00;1.90;;;;;;;24.24;65.19;99348.70;154532;1098;103187;-75
2021/08/07 11:26:59;;;;;;;2.20;2.00;;;;;;;24.24;66.76;99359.60;154600;1093;103344;-75
2021/08/07 11:30:20;;;;;;;2.00;1.80;;;;;;;24.20;65.19;99357.69;154000;1093;103228;-74
2021/08/07 11:33:27;;;;;;;2.10;1.90;;;;;;;23.96;66.40;99360.83;154576;1098;103188;-74
2021/08/07 11:36:30;;;;;;;2.30;1.70;;;;;;;23.83;66.45;99358.56;154599;1093;103155;-74
2021/08/07 11:40:05;;;;;;;3.40;1.97;;;;;;;23.78;65.24;99345.71;153951;1093;103133;-74
2021/08/07 11:43:13;;;;;;;2.10;1.90;;;;;;;23.78;66.30;99350.31;154624;1093;103208;-74
2021/08/07 11:46:17;;;;;;;3.50;1.90;;;;;;;23.77;63.73;99344.05;154692;1098;103188;-74
2021/08/07 11:49:19;;;;;;;2.65;1.90;;;;;;;23.70;65.61;99346.99;154049;1100;103224;-74
2021/08/07 11:52:28;;;;;;;2.30;2.00;;;;;;;23.70;65.64;99343.45;154590;1098;103201;-74
2021/08/07 11:55:33;;;;;;;2.10;1.83;;;;;;;23.64;65.81;99353.49;154034;1100;103193;-74
2021/08/07 11:58:43;;;;;;;3.83;1.90;;;;;;;23.66;65.87;99358.69;154599;1098;103305;-74
2021/08/07 12:01:46;;;;;;;2.63;2.10;;;;;;;23.50;64.54;99361.29;154647;1098;103188;-74
2021/08/07 12:05:08;;;;;;;2.00;1.80;;;;;;;23.27;64.11;99370.63;153953;1093;103141;-74
2021/08/07 12:08:12;;;;;;;2.10;1.90;;;;;;;23.09;65.23;99370.98;154619;1093;103100;-75
2021/08/07 12:11:17;;;;;;;2.20;1.93;;;;;;;23.07;65.84;99373.95;154309;1098;103646;-75
2021/08/07 12:14:27;;;;;;;2.17;1.80;;;;;;;23.18;64.09;99369.45;154011;1100;103266;-74
2021/08/07 12:17:30;;;;;;;2.60;1.85;;;;;;;23.27;65.03;99364.37;154069;1100;103222;-75
2021/08/07 12:20:43;;;;;;;3.30;2.10;;;;;;;23.35;64.89;99374.78;153947;1100;103196;-75
2021/08/07 12:23:48;;;;;;;1.97;1.87;;;;;;;23.41;65.00;99360.13;153957;1100;103136;-74
2021/08/07 12:26:52;;;;;;;2.25;2.05;;;;;;;23.52;64.89;99364.58;154002;1093;103195;-74
2021/08/07 12:29:55;;;;;;;1.70;1.60;;;;;;;23.68;64.73;99362.78;153951;1093;104914;-75
2021/08/07 12:33:15;;;;;;;1.90;1.80;;;;;;;23.79;62.08;99362.88;154011;1100;103119;-76
2021/08/07 12:36:20;;;;;;;4.60;2.05;;;;;;;23.99;64.09;99373.09;153990;1100;103125;-74
2021/08/07 12:39:24;;;;;;;22.55;13.35;;;;;;;24.18;63.95;99357.94;153979;1093;103774;-74
2021/08/07 12:42:29;;;;;;;24.65;15.25;;;;;;;24.27;63.51;99350.91;154044;1101;103580;-74
2021/08/07 12:45:31;;;;;;;5.57;3.70;;;;;;;24.32;63.12;99352.02;153970;1100;103293;-75
2021/08/07 12:48:50;;;;;;;2.67;2.00;;;;;;;24.32;62.99;99349.28;153996;1093;103128;-74
2021/08/07 12:52:01;;;;;;;55.87;35.13;;;;;;;24.33;63.63;99353.63;153949;1100;103163;-74
2021/08/07 12:55:07;;;;;;;15.35;10.95;;;;;;;24.27;62.86;99344.64;153979;1101;103121;-76
2021/08/07 12:58:13;;;;;;;5.30;3.43;;;;;;;24.07;62.82;99348.88;154089;1100;103135;-74
2021/08/07 13:01:17;;;;;;;2.47;2.00;;;;;;;24.02;63.11;99358.93;154313;1093;103194;-74
2021/08/07 13:04:20;;;;;;;2.13;1.70;;;;;;;23.85;61.29;99356.39;153981;1100;103157;-74
2021/08/07 13:07:30;;;;;;;1.90;1.57;;;;;;;23.64;62.53;99358.13;154374;1098;103126;-74
2021/08/07 13:10:33;;;;;;;1.97;1.70;;;;;;;23.47;62.44;99359.08;154636;1098;103650;-75
2021/08/07 13:13:41;;;;;;;2.33;1.70;;;;;;;23.36;63.08;99359.25;154010;1100;103192;-74
2021/08/07 13:16:45;;;;;;;3.07;1.70;;;;;;;23.35;62.35;99363.08;154000;1100;103250;-74
2021/08/07 13:19:48;;;;;;;2.70;1.77;;;;;;;23.46;62.13;99360.17;154581;1098;103116;-75
2021/08/07 13:23:00;;;;;;;3.50;1.80;;;;;;;23.55;62.40;99367.86;154571;1093;103190;-74
2021/08/07 13:26:09;;;;;;;2.08;1.73;;;;;;;23.49;61.56;99351.47;153994;1100;103192;-75
2021/08/07 13:29:18;;;;;;;2.53;1.90;;;;;;;23.40;61.77;99366.63;154657;1093;103181;-74
2021/08/07 13:32:23;;;;;;;2.18;1.70;;;;;;;23.31;62.67;99357.33;154022;1099;103579;-74
2021/08/07 13:35:26;;;;;;;2.68;2.13;;;;;;;23.23;62.66;99366.78;154543;1093;103263;-74
2021/08/07 13:38:30;;;;;;;2.00;1.70;;;;;;;23.23;62.62;99363.22;154007;1100;103192;-74
2021/08/07 13:41:38;;;;;;;2.93;1.70;;;;;;;23.24;61.82;99362.15;154375;1098;103120;-74
2021/08/07 13:44:41;;;;;;;3.03;2.08;;;;;;;23.22;62.31;99358.87;154268;1098;103216;-74
2021/08/07 13:47:45;;;;;;;2.30;1.70;;;;;;;23.30;62.58;99361.92;153955;1101;103224;-74
2021/08/07 13:50:48;;;;;;;2.00;1.80;;;;;;;23.38;61.81;99357.91;154421;1098;103159;-74
2021/08/07 13:53:50;;;;;;;2.63;1.70;;;;;;;23.46;61.91;99365.62;154545;1098;103136;-74
2021/08/07 13:56:53;;;;;;;3.03;1.70;;;;;;;23.48;62.07;99362.61;154579;1098;103125;-74
2021/08/07 13:59:56;;;;;;;2.50;2.30;;;;;;;23.52;62.35;99358.31;153980;1093;103135;-74
2021/08/07 14:02:59;;;;;;;2.80;2.50;;;;;;;23.62;62.30;99360.29;154603;1098;103222;-74
2021/08/07 14:06:03;;;;;;;3.90;2.97;;;;;;;23.72;62.47;99363.08;153997;1094;103122;-74
2021/08/07 14:09:06;;;;;;;2.85;1.95;;;;;;;23.76;62.30;99353.30;154709;1098;103139;-75
2021/08/07 14:12:09;;;;;;;2.30;2.10;;;;;;;23.88;62.26;99353.97;153944;1093;103107;-74